Pagrindinis puslapis
METAR-TAF:

METAR-TAF

Oro uostai :

Sveg, Švedija

platuma: 62-02-52N, ilguma: 014-25-22E, Aukštis: 359 m

Dabartinis oras

Ataskaita buvo paskelbta 28 minutes, ne 18:50 UTC
Vėjas 3 kt nuo kintamojo kryptimis
Temperatūra 7°C
Drėgmė 93%
Slėgis 1001 hPa
Matomumas: 8000 m
lietus

METAR: ESND 231850Z AUTO VRB03KT 8000 RA SCT002/// BKN011/// OVC025/// 07/06 Q1001

Laikas: 21:18 (19:18 UTC)


TAF: trūkstamas

Orai ataskaitas ir orų prognozės (METAR, TAF).

turimą stotys yra geltonos ir raudonos taškus žemėlapyje.

Perkelti pele per norėdami pamatyti stoties vardą.

Tada spustelėkite, norėdami matyti oro stebėjimo ir prognozės.

Norėdami pakeisti žemėlapį: spustelėkite ant žalios mygtukų su juodo kryžiaus žemyn,; žalią mygtuką su brūkšneliu, jei norite nutolinti; arba žalių rodyklių gretimoms žemėlapius.


METAR-TAF: